createdAt,value
2019-05-06T00:01:53.976Z,96053.47
2019-05-06T00:04:20.434Z,96046.24
2019-05-06T00:06:46.758Z,96042.44
2019-05-06T00:09:14.693Z,96048.02
2019-05-06T00:11:41.131Z,96037.92
2019-05-06T00:14:07.455Z,96038.77
2019-05-06T00:16:34.692Z,96050.27
2019-05-06T00:19:01.244Z,96046.91
2019-05-06T00:21:27.350Z,96045.59
2019-05-06T00:23:54.581Z,96043.53
2019-05-06T00:26:24.356Z,96045.39
2019-05-06T00:28:55.496Z,96040.13
2019-05-06T00:31:24.040Z,96042.14
2019-05-06T00:33:50.631Z,96044.45
2019-05-06T00:36:18.016Z,96048.91
2019-05-06T00:38:46.127Z,96038.80
2019-05-06T00:41:14.463Z,96039.69
2019-05-06T00:43:40.672Z,96044.44
2019-05-06T00:46:06.850Z,96041.27
2019-05-06T00:48:34.086Z,96037.14
2019-05-06T00:51:01.768Z,96046.83
2019-05-06T00:53:29.778Z,96044.91
2019-05-06T00:55:55.984Z,96043.92
2019-05-06T00:58:23.785Z,96054.31
2019-05-06T01:00:50.584Z,96042.30
2019-05-06T01:03:16.853Z,96043.82
2019-05-06T01:05:44.405Z,96042.03
2019-05-06T01:08:10.921Z,96049.95
2019-05-06T01:10:37.141Z,96050.91
2019-05-06T01:13:08.089Z,96049.25
2019-05-06T01:15:34.472Z,96049.70
2019-05-06T01:18:00.680Z,96054.25
2019-05-06T01:20:27.071Z,96058.37
2019-05-06T01:22:54.403Z,96051.78
2019-05-06T01:25:20.764Z,96057.95
2019-05-06T01:27:47.023Z,96054.03
2019-05-06T01:30:14.320Z,96058.37
2019-05-06T01:32:40.625Z,96054.84
2019-05-06T01:35:07.173Z,96058.58
2019-05-06T01:37:34.733Z,96058.64
2019-05-06T01:40:14.581Z,96058.42
2019-05-06T01:42:44.624Z,96058.78
2019-05-06T01:45:11.037Z,96058.22
2019-05-06T01:47:37.195Z,96059.30
2019-05-06T01:50:04.711Z,96057.67
2019-05-06T01:52:30.834Z,96062.48
2019-05-06T01:54:57.062Z,96062.41
2019-05-06T01:57:24.440Z,96067.67
2019-05-06T01:59:50.944Z,96067.70
2019-05-06T02:02:17.309Z,96069.00
2019-05-06T02:04:44.419Z,96073.05
2019-05-06T02:07:10.671Z,96072.48
2019-05-06T02:09:36.890Z,96074.87
2019-05-06T02:12:04.588Z,96071.52
2019-05-06T02:14:31.077Z,96074.35
2019-05-06T02:16:57.307Z,96073.66
2019-05-06T02:19:24.179Z,96079.22
2019-05-06T02:21:55.661Z,96071.61
2019-05-06T02:24:27.793Z,96081.09
2019-05-06T02:26:54.408Z,96082.67
2019-05-06T02:29:25.275Z,96089.79
2019-05-06T02:31:56.688Z,96091.72
2019-05-06T02:34:38.237Z,96091.84
2019-05-06T02:37:09.321Z,96088.34
2019-05-06T02:39:35.536Z,96095.84
2019-05-06T02:42:04.037Z,96097.41
2019-05-06T02:44:33.385Z,96096.37
2019-05-06T02:47:03.572Z,96092.69
2019-05-06T02:49:46.615Z,96093.16
2019-05-06T02:52:14.072Z,96102.06
2019-05-06T02:54:42.682Z,96103.64
2019-05-06T02:57:08.481Z,96103.89
2019-05-06T02:59:34.699Z,96104.41
2019-05-06T03:02:03.324Z,96106.10
2019-05-06T03:04:28.936Z,96103.73
2019-05-06T03:06:55.121Z,96104.23
2019-05-06T03:09:23.296Z,96105.05
2019-05-06T03:11:49.610Z,96103.16
2019-05-06T03:14:15.851Z,96106.13
2019-05-06T03:16:43.944Z,96106.02
2019-05-06T03:19:13.037Z,96104.94
2019-05-06T03:21:55.370Z,96105.89
2019-05-06T03:24:26.150Z,96109.59
2019-05-06T03:26:56.856Z,96104.38
2019-05-06T03:29:25.015Z,96108.55
2019-05-06T03:31:55.693Z,96104.03
2019-05-06T03:34:43.002Z,96104.88
2019-05-06T03:36:48.846Z,96110.83
2019-05-06T03:39:15.073Z,96108.56
2019-05-06T03:41:43.691Z,96113.56
2019-05-06T03:44:09.704Z,96116.17
2019-05-06T03:46:54.412Z,96125.20
2019-05-06T03:49:23.760Z,96127.66
2019-05-06T03:51:55.948Z,96132.64
2019-05-06T03:54:19.331Z,96137.70
2019-05-06T03:56:46.872Z,96136.78
2019-05-06T03:59:13.823Z,96133.22
2019-05-06T04:01:42.712Z,96132.02
2019-05-06T04:04:08.077Z,96131.67
2019-05-06T04:06:34.622Z,96137.98
2019-05-06T04:09:03.564Z,96134.05
2019-05-06T04:11:35.930Z,96141.52
2019-05-06T04:14:02.544Z,96127.03
2019-05-06T04:16:38.837Z,96139.63
2019-05-06T04:19:06.957Z,96138.21
2019-05-06T04:21:43.687Z,96139.05
2019-05-06T04:24:14.272Z,96152.36
2019-05-06T04:26:46.006Z,96144.91
2019-05-06T04:29:13.079Z,96145.49
2019-05-06T04:31:38.875Z,96147.19
2019-05-06T04:34:12.751Z,96154.30
2019-05-06T04:36:33.873Z,96154.68
2019-05-06T04:39:03.898Z,96154.80
2019-05-06T04:41:29.986Z,96149.58
2019-05-06T04:43:56.310Z,96151.84
2019-05-06T04:46:23.617Z,96153.38
2019-05-06T04:48:50.226Z,96158.27
2019-05-06T04:51:16.516Z,96152.69
2019-05-06T04:53:44.115Z,96161.61
2019-05-06T04:56:14.391Z,96147.00
2019-05-06T04:58:42.737Z,96160.30
2019-05-06T05:01:12.122Z,96160.92
2019-05-06T05:03:37.413Z,96164.73
2019-05-06T05:06:05.773Z,96162.50
2019-05-06T05:08:38.313Z,96166.77
2019-05-06T05:11:18.996Z,96165.95
2019-05-06T05:13:56.106Z,96164.41
2019-05-06T05:16:24.380Z,96174.98
2019-05-06T05:18:53.013Z,96171.06
2019-05-06T05:21:19.583Z,96177.02
2019-05-06T05:23:45.898Z,96176.18
2019-05-06T05:26:12.339Z,96170.72
2019-05-06T05:28:38.658Z,96179.41
2019-05-06T05:31:04.901Z,96173.33
2019-05-06T05:33:32.775Z,96173.68
2019-05-06T05:35:59.449Z,96174.49
2019-05-06T05:38:25.621Z,96180.80
2019-05-06T05:40:52.391Z,96178.30
2019-05-06T05:43:23.856Z,96176.77
2019-05-06T05:45:52.199Z,96174.84
2019-05-06T05:48:36.838Z,96172.72
2019-05-06T05:51:03.434Z,96168.70
2019-05-06T05:53:29.730Z,96166.81
2019-05-06T05:55:55.926Z,96174.64
2019-05-06T05:58:24.819Z,96177.16
2019-05-06T06:00:52.091Z,96186.30
2019-05-06T06:03:18.782Z,96184.30
2019-05-06T06:05:45.055Z,96188.58
2019-05-06T06:08:12.963Z,96195.23
2019-05-06T06:10:42.602Z,96193.70
2019-05-06T06:13:10.070Z,96194.89
2019-05-06T06:15:44.146Z,96199.17
2019-05-06T06:18:15.044Z,96201.77
2019-05-06T06:20:49.884Z,96196.05
2019-05-06T06:23:18.244Z,96199.51
2019-05-06T06:25:44.517Z,96196.86
2019-05-06T06:28:11.968Z,96199.70
2019-05-06T06:30:42.303Z,96196.56
2019-05-06T06:33:08.571Z,96206.49
2019-05-06T06:35:39.834Z,96203.50
2019-05-06T06:38:07.981Z,96210.98
2019-05-06T06:40:34.259Z,96203.68
2019-05-06T06:43:02.378Z,96203.68
2019-05-06T06:45:28.489Z,96206.05
2019-05-06T06:47:54.910Z,96205.46
2019-05-06T06:50:22.088Z,96199.75
2019-05-06T06:52:48.454Z,96206.39
2019-05-06T06:55:14.668Z,96207.67
2019-05-06T06:57:51.923Z,96205.67
2019-05-06T07:00:23.487Z,96201.06
2019-05-06T07:03:06.950Z,96195.68
2019-05-06T07:05:38.241Z,96203.89
2019-05-06T07:08:04.710Z,96202.47
2019-05-06T07:10:43.200Z,96205.47
2019-05-06T07:13:12.137Z,96210.25
2019-05-06T07:15:38.637Z,96206.05
2019-05-06T07:18:05.018Z,96210.33
2019-05-06T07:20:33.173Z,96214.83
2019-05-06T07:23:01.921Z,96201.88
2019-05-06T07:25:28.737Z,96214.83
2019-05-06T07:27:55.108Z,96205.64
2019-05-06T07:30:23.213Z,96208.22
2019-05-06T07:32:49.515Z,96209.02
2019-05-06T07:35:15.785Z,96211.09
2019-05-06T07:37:42.451Z,96208.18
2019-05-06T07:40:09.404Z,96210.80
2019-05-06T07:42:37.552Z,96210.95
2019-05-06T07:45:22.888Z,96205.13
2019-05-06T07:47:53.676Z,96212.33
2019-05-06T07:50:19.795Z,96210.25
2019-05-06T07:53:04.580Z,96212.23
2019-05-06T07:55:32.773Z,96208.85
2019-05-06T07:57:59.086Z,96209.33
2019-05-06T08:00:25.850Z,96206.70
2019-05-06T08:02:52.457Z,96210.69
2019-05-06T08:05:18.774Z,96199.55
2019-05-06T08:07:44.887Z,96205.02
2019-05-06T08:10:13.427Z,96211.84
2019-05-06T08:12:39.481Z,96212.87
2019-05-06T08:15:06.169Z,96218.67
2019-05-06T08:17:35.294Z,96207.34
2019-05-06T08:20:02.498Z,96207.34
2019-05-06T08:22:48.320Z,96201.89
2019-05-06T08:25:15.317Z,96196.38
2019-05-06T08:27:42.619Z,96190.27
2019-05-06T08:30:09.743Z,96193.59
2019-05-06T08:32:36.017Z,96196.27
2019-05-06T08:35:05.542Z,96196.64
2019-05-06T08:37:34.282Z,96198.58
2019-05-06T08:40:03.168Z,96193.64
2019-05-06T08:42:29.232Z,96192.76
2019-05-06T08:44:55.460Z,96196.84
2019-05-06T08:47:22.354Z,96192.22
2019-05-06T08:50:08.926Z,96190.41
2019-05-06T08:52:46.164Z,96184.77
2019-05-06T08:55:14.187Z,96192.89
2019-05-06T08:57:42.054Z,96181.84
2019-05-06T09:00:08.603Z,96186.24
2019-05-06T09:02:35.035Z,96188.58
2019-05-06T09:05:02.918Z,96186.91
2019-05-06T09:07:29.312Z,96193.25
2019-05-06T09:09:55.475Z,96194.94
2019-05-06T09:12:22.378Z,96191.16
2019-05-06T09:14:48.801Z,96196.27
2019-05-06T09:17:15.020Z,96200.16
2019-05-06T09:19:42.692Z,96205.36
2019-05-06T09:22:08.988Z,96201.14
2019-05-06T09:24:35.221Z,96198.77
2019-05-06T09:27:03.289Z,96199.30
2019-05-06T09:29:42.735Z,96187.30
2019-05-06T09:32:19.089Z,96186.91
2019-05-06T09:34:47.356Z,96181.86
2019-05-06T09:37:14.525Z,96186.69
2019-05-06T09:39:43.030Z,96176.86
2019-05-06T09:42:09.684Z,96177.97
2019-05-06T09:44:36.074Z,96187.45
2019-05-06T09:47:02.683Z,96177.31
2019-05-06T09:49:32.869Z,96175.45
2019-05-06T09:51:58.973Z,96173.23
2019-05-06T09:54:32.053Z,96171.28
2019-05-06T09:57:02.261Z,96169.49
2019-05-06T09:59:28.720Z,96172.52
2019-05-06T10:01:55.057Z,96168.40
2019-05-06T10:04:21.417Z,96171.50
2019-05-06T10:06:56.395Z,96170.19
2019-05-06T10:09:16.456Z,96174.98
2019-05-06T10:11:42.960Z,96183.03
2019-05-06T10:14:09.231Z,96187.64
2019-05-06T10:16:35.818Z,96184.27
2019-05-06T10:19:02.602Z,96184.98
2019-05-06T10:21:28.806Z,96181.93
2019-05-06T10:23:55.171Z,96180.92
2019-05-06T10:26:23.442Z,96182.96
2019-05-06T10:29:06.662Z,96186.92
2019-05-06T10:31:34.897Z,96182.23
2019-05-06T10:34:13.958Z,96185.65
2019-05-06T10:36:54.104Z,96175.91
2019-05-06T10:39:24.004Z,96177.41
2019-05-06T10:41:55.949Z,96182.84
2019-05-06T10:44:32.964Z,96170.71
2019-05-06T10:46:59.428Z,96177.31
2019-05-06T10:49:25.555Z,96173.00
2019-05-06T10:51:53.718Z,96172.58
2019-05-06T10:54:19.947Z,96171.92
2019-05-06T10:56:53.855Z,96174.61
2019-05-06T10:59:19.045Z,96173.13
2019-05-06T11:01:47.304Z,96181.83
2019-05-06T11:04:13.422Z,96177.66
2019-05-06T11:06:39.647Z,96173.15
2019-05-06T11:09:08.460Z,96163.12
2019-05-06T11:11:38.521Z,96167.23
2019-05-06T11:14:04.128Z,96172.33
2019-05-06T11:16:30.294Z,96164.41
2019-05-06T11:18:56.548Z,96160.94
2019-05-06T11:21:22.878Z,96161.39
2019-05-06T11:23:49.253Z,96152.86
2019-05-06T11:26:15.794Z,96146.95
2019-05-06T11:28:43.925Z,96156.80
2019-05-06T11:31:22.978Z,96156.54
2019-05-06T11:33:57.986Z,96163.28
2019-05-06T11:36:26.075Z,96168.20
2019-05-06T11:38:52.366Z,96169.97
2019-05-06T11:41:18.622Z,96168.01
2019-05-06T11:43:44.801Z,96176.45
2019-05-06T11:46:12.288Z,96173.34
2019-05-06T11:48:38.571Z,96174.76
2019-05-06T11:51:06.880Z,96175.56
2019-05-06T11:53:33.987Z,96176.13
2019-05-06T11:56:02.099Z,96183.21
2019-05-06T11:58:45.577Z,96174.00
2019-05-06T12:01:32.920Z,96168.40
2019-05-06T12:03:59.358Z,96169.88
2019-05-06T12:06:25.654Z,96166.19
2019-05-06T12:08:52.473Z,96162.82
2019-05-06T12:11:18.927Z,96167.92
2019-05-06T12:13:45.061Z,96149.99
2019-05-06T12:16:14.204Z,96146.22
2019-05-06T12:18:39.550Z,96144.78
2019-05-06T12:21:11.213Z,96148.47
2019-05-06T12:23:35.423Z,96157.75
2019-05-06T12:26:02.627Z,96147.25
2019-05-06T12:28:28.894Z,96143.15
2019-05-06T12:30:55.274Z,96146.86
2019-05-06T12:33:29.688Z,96139.26
2019-05-06T12:35:57.966Z,96144.22
2019-05-06T12:38:35.229Z,96151.89
2019-05-06T12:41:10.138Z,96147.31
2019-05-06T12:43:38.345Z,96146.17
2019-05-06T12:46:06.378Z,96148.55
2019-05-06T12:48:43.986Z,96151.31
2019-05-06T12:51:10.594Z,96158.80
2019-05-06T12:53:36.900Z,96155.83
2019-05-06T12:56:03.383Z,96144.53
2019-05-06T12:58:29.667Z,96151.13
2019-05-06T13:00:55.985Z,96147.39
2019-05-06T13:03:23.420Z,96145.59
2019-05-06T13:05:52.072Z,96147.58
2019-05-06T13:08:20.837Z,96145.00
2019-05-06T13:10:46.853Z,96146.44
2019-05-06T13:13:13.309Z,96138.74
2019-05-06T13:15:39.901Z,96145.75
2019-05-06T13:18:07.318Z,96134.47
2019-05-06T13:20:35.759Z,96138.78
2019-05-06T13:23:09.955Z,96146.16
2019-05-06T13:25:35.322Z,96145.37
2019-05-06T13:28:01.579Z,96143.75
2019-05-06T13:30:28.143Z,96147.37
2019-05-06T13:33:04.054Z,96143.74
2019-05-06T13:35:32.585Z,96150.55
2019-05-06T13:37:58.409Z,96141.92
2019-05-06T13:40:27.124Z,96141.77
2019-05-06T13:42:55.014Z,96139.45
2019-05-06T13:45:22.018Z,96142.77
2019-05-06T13:47:52.395Z,96144.55
2019-05-06T13:50:29.699Z,96150.64
2019-05-06T13:53:08.222Z,96160.27
2019-05-06T13:55:26.101Z,96155.71
2019-05-06T13:57:52.473Z,96153.33
2019-05-06T14:00:22.491Z,96153.64
2019-05-06T14:02:53.664Z,96147.58
2019-05-06T14:05:20.051Z,96153.85
2019-05-06T14:07:46.302Z,96150.98
2019-05-06T14:10:13.299Z,96154.20
2019-05-06T14:12:42.335Z,96151.87
2019-05-06T14:15:08.413Z,96155.42
2019-05-06T14:17:34.511Z,96154.70
2019-05-06T14:20:02.599Z,96154.51
2019-05-06T14:22:29.056Z,96153.33
2019-05-06T14:24:57.216Z,96143.40
2019-05-06T14:27:23.387Z,96142.23
2019-05-06T14:29:53.316Z,96143.46
2019-05-06T14:32:19.699Z,96143.81
2019-05-06T14:34:45.924Z,96148.64
2019-05-06T14:37:12.131Z,96141.04
2019-05-06T14:39:50.215Z,96141.92
2019-05-06T14:42:08.558Z,96146.78
2019-05-06T14:44:34.742Z,96145.63
2019-05-06T14:47:17.746Z,96136.08
2019-05-06T14:49:43.932Z,96138.27
2019-05-06T14:52:12.898Z,96146.05
2019-05-06T14:54:49.650Z,96142.52
2019-05-06T14:57:17.261Z,96139.77
2019-05-06T14:59:43.479Z,96137.23
2019-05-06T15:02:09.706Z,96139.64
2019-05-06T15:04:36.180Z,96141.39
2019-05-06T15:07:02.422Z,96146.08
2019-05-06T15:09:28.743Z,96143.23
2019-05-06T15:11:54.962Z,96138.28
2019-05-06T15:14:22.673Z,96148.80
2019-05-06T15:16:49.565Z,96146.89
2019-05-06T15:19:15.856Z,96147.84
2019-05-06T15:21:42.794Z,96148.78
2019-05-06T15:24:09.333Z,96154.34
2019-05-06T15:26:35.498Z,96153.27
2019-05-06T15:29:03.363Z,96160.88
2019-05-06T15:31:32.582Z,96157.59
2019-05-06T15:34:17.316Z,96152.69
2019-05-06T15:37:03.783Z,96156.97
2019-05-06T15:39:32.210Z,96146.30
2019-05-06T15:41:58.085Z,96149.86
2019-05-06T15:44:24.311Z,96155.73
2019-05-06T15:46:52.613Z,96157.03
2019-05-06T15:49:18.570Z,96155.38
2019-05-06T15:51:44.727Z,96156.99
2019-05-06T15:54:10.912Z,96155.02
2019-05-06T15:56:37.144Z,96157.47
2019-05-06T15:59:03.916Z,96156.15
2019-05-06T16:01:33.231Z,96158.15
2019-05-06T16:03:58.237Z,96154.83
2019-05-06T16:06:24.491Z,96152.22
2019-05-06T16:08:52.634Z,96150.58
2019-05-06T16:11:18.948Z,96152.53
2019-05-06T16:13:45.258Z,96156.09
2019-05-06T16:16:11.844Z,96151.44
2019-05-06T16:18:38.131Z,96149.10
2019-05-06T16:21:04.619Z,96150.70
2019-05-06T16:23:33.219Z,96152.48
2019-05-06T16:26:02.830Z,96155.58
2019-05-06T16:28:28.844Z,96155.14
2019-05-06T16:30:56.241Z,96145.36
2019-05-06T16:33:22.350Z,96152.41
2019-05-06T16:35:49.112Z,96148.41
2019-05-06T16:38:15.713Z,96152.52
2019-05-06T16:40:45.046Z,96153.31
2019-05-06T16:43:10.020Z,96155.39
2019-05-06T16:45:36.465Z,96154.36
2019-05-06T16:48:03.688Z,96160.75
2019-05-06T16:50:33.000Z,96158.67
2019-05-06T16:52:59.304Z,96157.44
2019-05-06T16:55:27.708Z,96158.97
2019-05-06T16:57:55.838Z,96159.75
2019-05-06T17:00:24.829Z,96157.95
2019-05-06T17:02:57.797Z,96155.47
2019-05-06T17:05:35.361Z,96154.95
2019-05-06T17:08:02.940Z,96155.23
2019-05-06T17:10:29.841Z,96155.29
2019-05-06T17:12:56.155Z,96153.76
2019-05-06T17:15:23.046Z,96153.03
2019-05-06T17:17:49.466Z,96157.23
2019-05-06T17:20:15.886Z,96154.53
2019-05-06T17:22:42.404Z,96158.30
2019-05-06T17:25:09.036Z,96162.66
2019-05-06T17:27:37.328Z,96161.97
2019-05-06T17:30:25.293Z,96163.91
2019-05-06T17:32:59.467Z,96158.27
2019-05-06T17:35:25.691Z,96158.02
2019-05-06T17:37:56.728Z,96161.64
2019-05-06T17:40:23.159Z,96158.61
2019-05-06T17:42:53.108Z,96161.67
2019-05-06T17:45:37.640Z,96165.73
2019-05-06T17:48:05.813Z,96162.98
2019-05-06T17:50:32.647Z,96164.41
2019-05-06T17:52:59.528Z,96160.55
2019-05-06T17:55:25.764Z,96164.23
2019-05-06T17:57:52.929Z,96162.23
2019-05-06T18:00:19.888Z,96158.04
2019-05-06T18:02:46.445Z,96162.05
2019-05-06T18:05:12.664Z,96163.46
2019-05-06T18:07:39.092Z,96167.51
2019-05-06T18:10:05.406Z,96165.08
2019-05-06T18:12:33.239Z,96168.97
2019-05-06T18:14:59.631Z,96172.17
2019-05-06T18:17:25.874Z,96171.78
2019-05-06T18:19:52.166Z,96184.38
2019-05-06T18:22:18.572Z,96178.08
2019-05-06T18:24:44.852Z,96187.09
2019-05-06T18:27:13.112Z,96182.58
2019-05-06T18:29:39.180Z,96190.05
2019-05-06T18:32:05.403Z,96192.95
2019-05-06T18:34:32.566Z,96187.58
2019-05-06T18:37:02.948Z,96187.42
2019-05-06T18:39:28.681Z,96191.86
2019-05-06T18:41:54.910Z,96188.59
2019-05-06T18:44:22.762Z,96199.66
2019-05-06T18:46:49.157Z,96198.41
2019-05-06T18:49:15.325Z,96202.53
2019-05-06T18:51:42.795Z,96202.12
2019-05-06T18:54:09.245Z,96200.23
2019-05-06T18:56:35.652Z,96208.08
2019-05-06T18:59:02.836Z,96207.09
2019-05-06T19:01:29.340Z,96203.61
2019-05-06T19:04:03.763Z,96207.38
2019-05-06T19:06:30.190Z,96213.83
2019-05-06T19:09:10.483Z,96219.00
2019-05-06T19:11:36.790Z,96220.92
2019-05-06T19:14:03.130Z,96224.14
2019-05-06T19:16:29.303Z,96221.19
2019-05-06T19:18:55.499Z,96230.38
2019-05-06T19:21:24.272Z,96229.32
2019-05-06T19:23:51.953Z,96233.00
2019-05-06T19:26:17.770Z,96233.47
2019-05-06T19:28:44.140Z,96233.20
2019-05-06T19:31:12.220Z,96228.09
2019-05-06T19:33:38.406Z,96239.48
2019-05-06T19:36:04.593Z,96244.02
2019-05-06T19:38:33.514Z,96243.77
2019-05-06T19:40:59.215Z,96241.61
2019-05-06T19:43:25.497Z,96232.92
2019-05-06T19:45:53.052Z,96238.98
2019-05-06T19:48:19.563Z,96242.19
2019-05-06T19:50:45.965Z,96237.78
2019-05-06T19:53:12.396Z,96239.30
2019-05-06T19:55:38.943Z,96238.33
2019-05-06T19:58:05.092Z,96240.74
2019-05-06T20:00:32.586Z,96244.73
2019-05-06T20:02:59.104Z,96244.02
2019-05-06T20:05:42.308Z,96239.74
2019-05-06T20:08:16.179Z,96238.81
2019-05-06T20:11:02.168Z,96239.77
2019-05-06T20:13:28.722Z,96238.58
2019-05-06T20:15:55.049Z,96237.77
2019-05-06T20:18:21.224Z,96234.90
2019-05-06T20:20:47.624Z,96237.39
2019-05-06T20:23:14.002Z,96234.42
2019-05-06T20:25:42.577Z,96235.61
2019-05-06T20:28:08.250Z,96242.52
2019-05-06T20:30:34.528Z,96240.28
2019-05-06T20:33:00.700Z,96240.78
2019-05-06T20:35:26.879Z,96236.26
2019-05-06T20:37:53.548Z,96234.98
2019-05-06T20:40:23.024Z,96232.49
2019-05-06T20:42:49.383Z,96239.27
2019-05-06T20:45:16.456Z,96229.95
2019-05-06T20:47:43.010Z,96235.07
2019-05-06T20:50:10.037Z,96232.45
2019-05-06T20:52:36.545Z,96234.10
2019-05-06T20:55:12.499Z,96230.92
2019-05-06T20:57:32.904Z,96238.55
2019-05-06T20:59:59.237Z,96228.94
2019-05-06T21:02:25.966Z,96228.94
2019-05-06T21:04:52.507Z,96226.45
2019-05-06T21:07:18.632Z,96228.36
2019-05-06T21:09:44.882Z,96225.14
2019-05-06T21:12:11.085Z,96222.81
2019-05-06T21:14:38.431Z,96227.42
2019-05-06T21:17:04.640Z,96225.22
2019-05-06T21:19:32.943Z,96222.84
2019-05-06T21:21:58.933Z,96225.28
2019-05-06T21:24:25.313Z,96220.88
2019-05-06T21:26:53.161Z,96222.34
2019-05-06T21:29:19.548Z,96220.22
2019-05-06T21:31:45.716Z,96230.58
2019-05-06T21:34:12.893Z,96222.98
2019-05-06T21:36:39.141Z,96221.83
2019-05-06T21:39:06.210Z,96229.45
2019-05-06T21:41:32.793Z,96228.16
2019-05-06T21:43:59.178Z,96223.75
2019-05-06T21:46:25.462Z,96220.69
2019-05-06T21:48:52.956Z,96221.86
2019-05-06T21:51:19.392Z,96222.72
2019-05-06T21:53:45.659Z,96222.70
2019-05-06T21:56:13.097Z,96223.44
2019-05-06T21:58:39.448Z,96219.75
2019-05-06T22:01:06.981Z,96216.06
2019-05-06T22:03:35.123Z,96216.42
2019-05-06T22:06:02.301Z,96212.12
2019-05-06T22:08:29.894Z,96213.66
2019-05-06T22:10:56.095Z,96215.36
2019-05-06T22:13:22.292Z,96217.14
2019-05-06T22:15:48.493Z,96212.59
2019-05-06T22:18:14.683Z,96216.05
2019-05-06T22:20:59.378Z,96217.22
2019-05-06T22:23:29.611Z,96222.10
2019-05-06T22:26:08.556Z,96218.41
2019-05-06T22:28:24.610Z,96221.37
2019-05-06T22:30:52.025Z,96210.56
2019-05-06T22:33:18.373Z,96215.65
2019-05-06T22:35:44.637Z,96211.72
2019-05-06T22:38:12.352Z,96205.42
2019-05-06T22:40:38.647Z,96205.07
2019-05-06T22:43:04.792Z,96208.27
2019-05-06T22:45:32.899Z,96205.19
2019-05-06T22:47:59.053Z,96212.42
2019-05-06T22:50:25.259Z,96206.72
2019-05-06T22:52:52.868Z,96207.88
2019-05-06T22:55:19.247Z,96206.22
2019-05-06T22:57:45.467Z,96198.14
2019-05-06T23:00:15.528Z,96203.84
2019-05-06T23:02:46.248Z,96204.79
2019-05-06T23:05:12.708Z,96207.38
2019-05-06T23:07:38.939Z,96197.87
2019-05-06T23:10:06.471Z,96197.14
2019-05-06T23:12:32.691Z,96194.41
2019-05-06T23:14:58.818Z,96196.78
2019-05-06T23:17:25.050Z,96195.70
2019-05-06T23:19:52.775Z,96196.28
2019-05-06T23:22:19.552Z,96198.55
2019-05-06T23:24:45.669Z,96196.16
2019-05-06T23:27:12.660Z,96192.58
2019-05-06T23:29:38.912Z,96206.22
2019-05-06T23:32:05.138Z,96198.95
2019-05-06T23:34:32.487Z,96201.33
2019-05-06T23:37:02.992Z,96200.13
2019-05-06T23:40:08.589Z,96203.70
2019-05-06T23:43:12.692Z,96200.24
2019-05-06T23:46:17.014Z,96198.08
2019-05-06T23:49:22.295Z,96200.78
2019-05-06T23:52:25.820Z,96196.13
2019-05-06T23:55:29.483Z,96191.13
2019-05-06T23:57:55.662Z,96184.72
